Time;durP1;ratioP1;P1;durP2;ratioP2;P2;SDS_P1;SDS_P2;PMS_P1;PMS_P2;Temp;Humidity;BMP_temperature;BMP_pressure;BME280_temperature;BME280_humidity;BME280_pressure;Samples;Min_cycle;Max_cycle;Signal;HPM_P1;HPM_P2
2022/04/13 00:01:05;;;;;;;8.27;4.07;;;13.40;99.90;;;;;;4946131;29;20371;-75
2022/04/13 00:03:31;;;;;;;10.20;4.97;;;13.40;99.90;;;;;;4955120;29;20030;-75
2022/04/13 00:05:56;;;;;;;6.80;4.10;;;13.40;99.90;;;;;;4947322;29;20050;-75
2022/04/13 00:08:22;;;;;;;6.45;3.17;;;13.40;99.90;;;;;;4933350;29;20023;-76
2022/04/13 00:10:48;;;;;;;5.47;3.53;;;13.30;99.90;;;;;;4954009;29;20031;-76
2022/04/13 00:13:13;;;;;;;6.50;4.30;;;13.30;99.90;;;;;;4955730;28;20050;-76
2022/04/13 00:15:40;;;;;;;3.55;3.10;;;13.30;99.90;;;;;;4936774;29;20019;-76
2022/04/13 00:18:06;;;;;;;4.32;3.15;;;13.30;99.90;;;;;;4970570;28;20030;-76
2022/04/13 00:20:32;;;;;;;6.75;3.78;;;13.20;99.90;;;;;;4949664;28;20074;-79
2022/04/13 00:22:57;;;;;;;5.88;3.78;;;13.20;99.90;;;;;;4949535;29;20019;-78
2022/04/13 00:25:23;;;;;;;8.15;4.78;;;13.10;99.90;;;;;;4947532;29;20074;-78
2022/04/13 00:27:48;;;;;;;4.18;3.20;;;13.10;99.90;;;;;;4948249;29;20092;-77
2022/04/13 00:30:14;;;;;;;5.55;3.67;;;13.10;99.90;;;;;;4947277;29;20027;-75
2022/04/13 00:32:39;;;;;;;5.72;3.42;;;13.00;99.90;;;;;;4936962;29;20051;-78
2022/04/13 00:35:05;;;;;;;6.05;3.25;;;13.00;99.90;;;;;;4936943;29;20077;-78
2022/04/13 00:37:32;;;;;;;4.15;3.75;;;13.00;99.90;;;;;;4944939;29;20051;-77
2022/04/13 00:39:57;;;;;;;3.92;3.28;;;13.00;99.90;;;;;;4951919;29;20658;-77
2022/04/13 00:42:24;;;;;;;6.55;4.15;;;13.00;99.90;;;;;;4952274;29;20027;-77
2022/04/13 00:44:49;;;;;;;4.45;3.55;;;12.90;99.90;;;;;;4935050;29;20024;-78
2022/04/13 00:47:15;;;;;;;5.30;3.72;;;12.90;99.90;;;;;;4945928;29;20102;-78
2022/04/13 00:49:42;;;;;;;7.78;4.70;;;12.90;99.90;;;;;;4935862;29;20020;-79
2022/04/13 00:52:08;;;;;;;4.40;3.28;;;12.90;99.90;;;;;;4947267;29;20023;-77
2022/04/13 00:54:35;;;;;;;7.35;3.75;;;12.80;99.90;;;;;;4947583;29;20051;-80
2022/04/13 00:57:07;;;;;;;4.75;3.92;;;12.80;99.90;;;;;;4948507;29;20078;-81
2022/04/13 00:59:36;;;;;;;4.85;3.55;;;12.80;99.90;;;;;;4948094;29;20016;-78
2022/04/13 01:02:02;;;;;;;7.85;3.67;;;12.80;99.90;;;;;;4937200;29;20030;-78
2022/04/13 01:04:31;;;;;;;5.63;3.60;;;12.80;99.90;;;;;;4954638;28;20031;-78
2022/04/13 01:06:56;;;;;;;4.45;4.05;;;12.70;99.90;;;;;;4946723;29;20670;-78
2022/04/13 01:09:25;;;;;;;6.40;4.13;;;12.60;99.90;;;;;;4954651;29;20055;-77
2022/04/13 01:11:50;;;;;;;6.30;3.95;;;12.60;99.90;;;;;;4948053;29;20085;-78
2022/04/13 01:14:16;;;;;;;5.97;3.80;;;12.60;99.90;;;;;;4956120;29;20039;-78
2022/04/13 01:16:41;;;;;;;5.72;3.63;;;12.60;99.90;;;;;;4962685;28;20031;-78
2022/04/13 01:19:07;;;;;;;7.00;4.28;;;12.50;99.90;;;;;;4954018;29;20393;-77
2022/04/13 01:21:58;;;;;;;5.40;4.63;;;12.50;99.90;;;;;;4949814;29;20024;-78
2022/04/13 01:24:24;;;;;;;6.37;4.60;;;12.40;99.90;;;;;;4936674;29;20030;-78
2022/04/13 01:26:49;;;;;;;4.93;3.45;;;12.30;99.90;;;;;;4936849;29;20021;-78
2022/04/13 01:29:15;;;;;;;6.60;4.50;;;12.30;99.90;;;;;;4947516;29;20038;-78
2022/04/13 01:31:41;;;;;;;5.50;3.80;;;12.20;99.90;;;;;;4948392;29;20614;-78
2022/04/13 01:34:07;;;;;;;8.13;4.28;;;12.20;99.90;;;;;;4932189;29;20035;-78
2022/04/13 01:36:34;;;;;;;5.40;3.63;;;12.20;99.90;;;;;;4938526;29;20028;-78
2022/04/13 01:39:00;;;;;;;4.97;3.30;;;12.20;99.90;;;;;;4930729;29;20170;-77
2022/04/13 01:41:25;;;;;;;6.00;3.55;;;12.10;99.90;;;;;;4929410;29;20051;-78
2022/04/13 01:43:51;;;;;;;5.85;3.53;;;12.00;99.90;;;;;;4930100;29;20028;-77
2022/04/13 01:46:16;;;;;;;5.93;4.28;;;12.00;99.90;;;;;;4945584;29;20073;-78
2022/04/13 01:48:42;;;;;;;6.95;3.70;;;12.00;99.90;;;;;;4960008;28;20106;-78
2022/04/13 01:51:07;;;;;;;7.40;4.38;;;11.90;99.90;;;;;;4931559;29;20031;-78
2022/04/13 01:53:35;;;;;;;7.30;4.10;;;11.90;99.90;;;;;;4932535;29;20024;-77
2022/04/13 01:56:00;;;;;;;6.25;4.40;;;12.00;99.90;;;;;;4928338;29;20055;-78
2022/04/13 01:58:26;;;;;;;6.43;4.13;;;11.90;99.90;;;;;;4949935;29;20209;-77
2022/04/13 02:00:53;;;;;;;7.68;4.03;;;11.90;99.90;;;;;;4950930;29;20473;-78
2022/04/13 02:03:20;;;;;;;5.22;4.07;;;11.80;99.90;;;;;;4955633;28;20019;-78
2022/04/13 02:05:46;;;;;;;5.60;3.65;;;11.80;99.90;;;;;;4934213;29;20098;-78
2022/04/13 02:08:12;;;;;;;5.25;4.43;;;11.80;99.90;;;;;;4951462;29;20113;-78
2022/04/13 02:10:38;;;;;;;6.95;3.83;;;11.70;99.90;;;;;;4955743;29;20062;-78
2022/04/13 02:13:03;;;;;;;8.93;3.85;;;11.60;99.90;;;;;;4958029;29;20113;-78
2022/04/13 02:15:29;;;;;;;4.25;3.85;;;11.60;99.90;;;;;;4953478;28;20031;-78
2022/04/13 02:17:55;;;;;;;7.97;4.30;;;11.60;99.90;;;;;;4951210;29;20103;-77
2022/04/13 02:20:20;;;;;;;4.82;3.63;;;11.60;99.90;;;;;;4954150;29;20066;-78
2022/04/13 02:22:46;;;;;;;5.10;4.07;;;11.60;99.90;;;;;;4949404;29;20122;-79
2022/04/13 02:25:12;;;;;;;8.27;4.13;;;11.60;99.90;;;;;;4948962;29;20051;-78
2022/04/13 02:27:38;;;;;;;8.10;3.78;;;11.50;99.90;;;;;;4937571;29;20028;-78
2022/04/13 02:30:04;;;;;;;5.82;3.80;;;11.50;99.90;;;;;;4940025;29;20381;-78
2022/04/13 02:32:30;;;;;;;6.40;4.28;;;11.40;99.90;;;;;;4949305;29;20338;-78
2022/04/13 02:34:55;;;;;;;9.68;4.32;;;11.40;99.90;;;;;;4927394;29;20079;-78
2022/04/13 02:37:21;;;;;;;8.73;4.22;;;11.30;99.90;;;;;;4951168;29;20429;-79
2022/04/13 02:39:46;;;;;;;7.75;4.72;;;11.30;99.90;;;;;;4965537;28;20027;-77
2022/04/13 02:42:14;;;;;;;6.18;3.85;;;11.20;99.90;;;;;;4934554;29;20078;-77
2022/04/13 02:44:43;;;;;;;9.32;4.13;;;11.30;99.90;;;;;;4950658;29;20031;-78
2022/04/13 02:47:12;;;;;;;8.45;4.93;;;11.30;99.90;;;;;;4949518;29;20032;-78
2022/04/13 02:49:37;;;;;;;6.93;4.45;;;11.20;99.90;;;;;;4947939;29;20035;-77
2022/04/13 02:52:04;;;;;;;6.18;4.28;;;11.20;99.90;;;;;;4948878;29;20031;-78
2022/04/13 02:54:30;;;;;;;5.50;4.82;;;11.20;99.90;;;;;;4949939;29;20024;-77
2022/04/13 02:56:55;;;;;;;6.75;4.60;;;11.10;99.90;;;;;;4949231;29;20540;-78
2022/04/13 02:59:21;;;;;;;9.40;4.72;;;11.10;99.90;;;;;;4956641;29;20015;-78
2022/04/13 03:01:46;;;;;;;6.80;4.20;;;11.00;99.90;;;;;;4958797;28;20504;-77
2022/04/13 03:04:13;;;;;;;4.65;4.20;;;11.00;99.90;;;;;;4931386;29;20115;-78
2022/04/13 03:06:39;;;;;;;8.05;4.25;;;11.00;99.90;;;;;;4948390;29;20023;-78
2022/04/13 03:09:05;;;;;;;7.50;4.10;;;11.00;99.90;;;;;;4964245;28;20098;-78
2022/04/13 03:11:30;;;;;;;8.60;3.88;;;11.00;99.90;;;;;;4939941;29;20401;-79
2022/04/13 03:13:56;;;;;;;5.55;4.25;;;11.00;99.90;;;;;;4934643;29;20027;-78
2022/04/13 03:16:22;;;;;;;6.55;4.05;;;11.00;99.90;;;;;;4950581;29;20474;-78
2022/04/13 03:18:47;;;;;;;7.82;4.47;;;10.90;99.90;;;;;;4952159;29;20038;-78
2022/04/13 03:21:13;;;;;;;8.38;4.18;;;10.90;99.90;;;;;;4963973;28;20161;-78
2022/04/13 03:23:38;;;;;;;6.65;4.93;;;10.90;99.90;;;;;;4950982;29;20043;-78
2022/04/13 03:26:04;;;;;;;7.43;4.25;;;10.80;99.90;;;;;;4947653;29;20032;-79
2022/04/13 03:28:29;;;;;;;6.13;4.30;;;10.80;99.90;;;;;;4952362;29;20035;-77
2022/04/13 03:30:56;;;;;;;4.75;3.80;;;10.80;99.90;;;;;;4952427;29;20038;-77
2022/04/13 03:33:21;;;;;;;6.93;3.95;;;10.80;99.90;;;;;;4948710;29;20073;-77
2022/04/13 03:35:47;;;;;;;6.40;4.53;;;10.70;99.90;;;;;;4931596;29;20047;-78
2022/04/13 03:38:12;;;;;;;6.07;4.47;;;10.70;99.90;;;;;;4930719;29;20034;-78
2022/04/13 03:40:38;;;;;;;6.05;4.43;;;10.60;99.90;;;;;;4947729;29;20020;-78
2022/04/13 03:43:03;;;;;;;7.47;4.80;;;10.60;99.90;;;;;;4956273;29;20107;-78
2022/04/13 03:45:29;;;;;;;6.22;4.57;;;10.60;99.90;;;;;;4950937;29;20035;-77
2022/04/13 03:47:55;;;;;;;8.20;4.93;;;10.60;99.90;;;;;;4932164;29;20110;-77
2022/04/13 03:50:20;;;;;;;16.23;4.72;;;10.60;99.90;;;;;;4950192;29;20019;-78
2022/04/13 03:52:46;;;;;;;6.25;4.22;;;10.50;99.90;;;;;;4948805;29;20054;-77
2022/04/13 03:55:12;;;;;;;9.50;4.82;;;10.50;99.90;;;;;;4934229;29;20063;-78
2022/04/13 03:57:38;;;;;;;6.78;4.00;;;10.50;99.90;;;;;;4949768;29;20055;-77
2022/04/13 04:00:05;;;;;;;10.45;5.00;;;10.40;99.90;;;;;;4958276;28;20028;-79
2022/04/13 04:02:30;;;;;;;8.23;4.53;;;10.50;99.90;;;;;;4962381;28;20030;-77
2022/04/13 04:04:56;;;;;;;8.13;4.57;;;10.40;99.90;;;;;;4949337;29;20031;-80
2022/04/13 04:07:21;;;;;;;6.30;3.63;;;10.40;99.90;;;;;;4951576;29;20023;-79
2022/04/13 04:09:47;;;;;;;8.50;3.80;;;10.40;99.90;;;;;;4956943;29;20028;-79
2022/04/13 04:12:14;;;;;;;9.02;4.47;;;10.40;99.90;;;;;;4937230;29;20026;-79
2022/04/13 04:14:39;;;;;;;5.97;3.83;;;10.30;99.90;;;;;;4945470;29;20095;-78
2022/04/13 04:17:05;;;;;;;6.13;4.20;;;10.30;99.90;;;;;;4954213;29;20066;-79
2022/04/13 04:19:30;;;;;;;10.18;4.60;;;10.30;99.90;;;;;;4948406;29;20019;-79
2022/04/13 04:21:56;;;;;;;7.82;4.72;;;10.30;99.90;;;;;;4956254;29;20035;-78
2022/04/13 04:24:22;;;;;;;12.35;3.83;;;10.30;99.90;;;;;;4932333;29;20078;-78
2022/04/13 04:26:47;;;;;;;5.60;3.80;;;10.30;99.90;;;;;;4930125;29;20509;-78
2022/04/13 04:29:13;;;;;;;6.88;4.68;;;10.30;99.90;;;;;;4946665;29;20042;-79
2022/04/13 04:31:49;;;;;;;11.02;4.70;;;10.30;99.90;;;;;;4952127;29;20042;-78
2022/04/13 04:34:16;;;;;;;7.38;4.13;;;10.30;99.90;;;;;;4931063;29;20493;-79
2022/04/13 04:36:41;;;;;;;6.72;4.25;;;10.20;99.90;;;;;;4947133;29;20541;-78
2022/04/13 04:39:07;;;;;;;5.78;3.58;;;10.20;99.90;;;;;;4949297;29;20063;-78
2022/04/13 04:41:33;;;;;;;6.30;4.13;;;10.20;99.90;;;;;;4931443;29;20027;-78
2022/04/13 04:43:59;;;;;;;7.50;3.58;;;10.10;99.90;;;;;;4934224;29;20023;-78
2022/04/13 04:46:25;;;;;;;8.55;5.13;;;10.10;99.90;;;;;;4939376;29;20019;-78
2022/04/13 04:48:51;;;;;;;9.75;5.50;;;10.10;99.90;;;;;;4940851;29;20045;-78
2022/04/13 04:51:16;;;;;;;11.70;3.95;;;10.10;99.90;;;;;;4948902;29;20090;-78
2022/04/13 04:53:42;;;;;;;11.57;3.80;;;10.20;99.90;;;;;;4949746;29;20024;-79
2022/04/13 04:56:07;;;;;;;11.73;4.65;;;10.20;99.90;;;;;;4947810;29;20042;-78
2022/04/13 04:58:34;;;;;;;9.95;4.75;;;10.20;99.90;;;;;;4955376;28;20029;-77
2022/04/13 05:00:59;;;;;;;16.98;4.60;;;10.30;99.90;;;;;;4941820;28;20023;-78
2022/04/13 05:03:25;;;;;;;17.52;5.30;;;10.40;99.90;;;;;;4952478;29;20019;-77
2022/04/13 05:05:51;;;;;;;9.45;5.22;;;10.40;99.90;;;;;;4953637;29;20035;-78
2022/04/13 05:08:16;;;;;;;14.20;5.70;;;10.50;99.90;;;;;;4938492;29;20035;-78
2022/04/13 05:10:43;;;;;;;11.55;5.13;;;10.60;99.90;;;;;;4951720;29;20074;-78
2022/04/13 05:13:09;;;;;;;15.13;5.28;;;10.70;99.90;;;;;;4936091;29;20023;-78
2022/04/13 05:15:34;;;;;;;9.15;4.63;;;10.70;99.90;;;;;;4944987;29;20027;-79
2022/04/13 05:18:01;;;;;;;14.13;5.32;;;10.90;99.90;;;;;;4950144;28;20131;-78
2022/04/13 05:20:26;;;;;;;9.35;4.75;;;10.90;99.90;;;;;;4948181;29;20027;-79
2022/04/13 05:22:52;;;;;;;15.15;5.28;;;11.00;99.90;;;;;;4951589;29;20027;-78
2022/04/13 05:25:18;;;;;;;12.50;5.55;;;11.10;99.90;;;;;;4964255;28;20024;-78
2022/04/13 05:27:44;;;;;;;7.80;5.18;;;11.20;99.90;;;;;;4951989;29;20038;-78
2022/04/13 05:30:13;;;;;;;9.07;4.57;;;11.40;99.90;;;;;;4948190;28;20039;-78
2022/04/13 05:32:46;;;;;;;8.77;4.20;;;11.50;99.90;;;;;;4956179;28;20409;-78
2022/04/13 05:35:12;;;;;;;9.52;4.40;;;11.80;99.90;;;;;;4953891;28;20060;-78
2022/04/13 05:37:37;;;;;;;10.63;4.75;;;12.00;99.90;;;;;;4958860;28;20042;-77
2022/04/13 05:40:03;;;;;;;8.95;4.22;;;12.30;99.90;;;;;;4942800;29;20399;-78
2022/04/13 05:42:31;;;;;;;8.20;4.70;;;12.30;99.90;;;;;;4965942;28;20217;-77
2022/04/13 05:44:57;;;;;;;10.45;4.85;;;12.40;99.90;;;;;;4955034;28;20042;-78
2022/04/13 05:47:23;;;;;;;10.63;4.72;;;12.50;99.90;;;;;;4958349;28;20043;-78
2022/04/13 05:49:48;;;;;;;9.00;4.68;;;12.60;99.90;;;;;;4957993;28;20042;-80
2022/04/13 05:52:15;;;;;;;13.45;5.45;;;12.90;99.90;;;;;;4958516;29;20038;-78
2022/04/13 05:54:40;;;;;;;8.40;4.53;;;12.90;99.90;;;;;;4955382;28;20393;-78
2022/04/13 05:57:08;;;;;;;12.82;5.30;;;13.00;99.90;;;;;;4955286;28;20319;-77
2022/04/13 05:59:34;;;;;;;8.15;4.97;;;13.10;99.90;;;;;;4943164;28;20050;-77
2022/04/13 06:02:00;;;;;;;8.20;5.85;;;13.60;99.90;;;;;;4958577;28;20401;-79
2022/04/13 06:04:26;;;;;;;7.75;5.18;;;13.60;99.90;;;;;;4966310;28;20511;-78
2022/04/13 06:06:54;;;;;;;9.70;5.35;;;13.70;99.90;;;;;;4959351;28;20118;-78
2022/04/13 06:09:19;;;;;;;8.77;4.25;;;13.60;99.90;;;;;;4960397;28;20027;-78
2022/04/13 06:11:45;;;;;;;6.28;4.88;;;13.50;99.90;;;;;;4956099;28;20064;-78
2022/04/13 06:14:11;;;;;;;6.50;4.60;;;13.60;99.90;;;;;;4959334;28;20085;-78
2022/04/13 06:16:36;;;;;;;8.48;4.68;;;13.60;99.90;;;;;;4950103;28;20494;-78
2022/04/13 06:19:02;;;;;;;8.20;5.32;;;13.50;99.90;;;;;;4957345;28;20031;-78
2022/04/13 06:21:27;;;;;;;8.23;5.03;;;13.60;99.90;;;;;;4959700;28;20031;-78
2022/04/13 06:23:53;;;;;;;9.82;5.38;;;13.90;99.90;;;;;;4958381;28;20050;-78
2022/04/13 06:26:18;;;;;;;8.07;5.57;;;13.90;99.90;;;;;;4961296;28;20041;-78
2022/04/13 06:28:44;;;;;;;10.95;4.82;;;14.10;99.90;;;;;;4958310;28;20049;-78
2022/04/13 06:31:10;;;;;;;9.23;4.65;;;14.50;99.90;;;;;;4951184;29;20126;-78
2022/04/13 06:33:35;;;;;;;7.45;4.80;;;14.60;99.90;;;;;;4959860;28;20031;-78
2022/04/13 06:36:01;;;;;;;5.15;4.18;;;14.90;99.90;;;;;;4962681;28;20031;-79
2022/04/13 06:38:27;;;;;;;5.03;4.47;;;15.10;99.90;;;;;;4939248;29;20116;-78
2022/04/13 06:40:52;;;;;;;5.72;4.45;;;15.30;99.90;;;;;;4939082;28;20039;-78
2022/04/13 06:43:18;;;;;;;7.97;4.70;;;15.40;99.90;;;;;;4956773;28;20485;-78
2022/04/13 06:45:43;;;;;;;6.90;3.97;;;15.10;99.90;;;;;;4955135;28;20035;-78
2022/04/13 06:48:09;;;;;;;8.02;4.55;;;15.20;99.90;;;;;;4944483;28;20493;-78
2022/04/13 06:50:35;;;;;;;9.40;5.32;;;15.40;99.90;;;;;;4943914;28;20043;-78
2022/04/13 06:53:01;;;;;;;8.68;4.95;;;15.70;99.90;;;;;;4940841;29;20027;-80
2022/04/13 06:55:26;;;;;;;5.53;4.47;;;15.80;99.90;;;;;;4955161;29;20413;-79
2022/04/13 06:57:52;;;;;;;9.57;4.50;;;16.00;99.90;;;;;;4944763;29;20118;-79
2022/04/13 07:00:17;;;;;;;9.05;4.18;;;16.00;99.90;;;;;;4956658;28;20114;-78
2022/04/13 07:02:43;;;;;;;8.70;4.22;;;16.10;99.90;;;;;;4958925;28;20027;-77
2022/04/13 07:05:09;;;;;;;5.03;4.38;;;16.20;99.90;;;;;;4938153;29;20038;-78
2022/04/13 07:07:35;;;;;;;7.30;4.38;;;16.00;99.90;;;;;;4941576;28;20027;-77
2022/04/13 07:10:01;;;;;;;7.47;4.40;;;16.10;99.90;;;;;;4968662;29;20055;-78
2022/04/13 07:12:35;;;;;;;5.80;4.63;;;16.30;99.90;;;;;;4971072;28;20027;-76
2022/04/13 07:15:01;;;;;;;5.80;4.18;;;16.40;99.90;;;;;;4971166;28;20058;-76
2022/04/13 07:17:26;;;;;;;6.43;4.10;;;16.30;99.90;;;;;;4977844;28;20019;-76
2022/04/13 07:19:52;;;;;;;8.75;4.80;;;16.30;99.90;;;;;;4966759;28;20039;-76
2022/04/13 07:22:17;;;;;;;6.43;5.03;;;16.60;99.90;;;;;;4979857;28;20063;-76
2022/04/13 07:24:43;;;;;;;6.05;4.75;;;16.50;99.90;;;;;;4979054;28;20497;-76
2022/04/13 07:27:08;;;;;;;7.35;4.20;;;16.70;99.90;;;;;;4965044;28;20039;-76
2022/04/13 07:29:34;;;;;;;9.40;4.43;;;16.80;99.90;;;;;;4962204;29;20050;-76
2022/04/13 07:31:59;;;;;;;7.10;4.05;;;16.70;99.90;;;;;;4974383;28;20039;-76
2022/04/13 07:34:25;;;;;;;10.57;4.57;;;16.80;99.90;;;;;;4980145;28;20031;-77
2022/04/13 07:36:50;;;;;;;7.10;4.68;;;17.00;99.90;;;;;;4967220;28;20098;-77
2022/04/13 07:39:16;;;;;;;5.47;4.10;;;17.10;99.90;;;;;;4971629;28;20037;-77
2022/04/13 07:41:42;;;;;;;5.97;4.00;;;17.30;99.90;;;;;;4963106;28;20081;-76
2022/04/13 07:44:07;;;;;;;6.13;4.32;;;17.30;99.90;;;;;;4968472;28;20111;-77
2022/04/13 07:46:33;;;;;;;9.55;5.00;;;17.10;99.90;;;;;;4965245;29;20012;-76
2022/04/13 07:48:59;;;;;;;11.50;5.45;;;17.30;99.90;;;;;;4978040;28;20035;-76
2022/04/13 07:51:24;;;;;;;5.95;4.28;;;17.20;99.90;;;;;;4964314;28;20026;-77
2022/04/13 07:53:50;;;;;;;8.82;4.60;;;17.40;99.90;;;;;;4978412;28;20039;-76
2022/04/13 07:56:15;;;;;;;8.02;4.45;;;17.60;99.90;;;;;;4971447;28;20058;-75
2022/04/13 07:58:41;;;;;;;6.78;4.93;;;17.50;99.90;;;;;;4987725;28;20043;-76
2022/04/13 08:01:06;;;;;;;8.70;4.97;;;17.80;99.90;;;;;;4970349;28;20058;-77
2022/04/13 08:03:32;;;;;;;8.73;4.40;;;18.00;99.90;;;;;;4965572;28;20034;-77
2022/04/13 08:05:58;;;;;;;11.57;4.43;;;18.10;99.90;;;;;;4958696;28;20396;-76
2022/04/13 08:08:23;;;;;;;9.50;5.38;;;17.80;99.90;;;;;;4958199;28;20385;-77
2022/04/13 08:10:49;;;;;;;8.63;4.57;;;17.90;99.90;;;;;;4958602;28;20102;-77
2022/04/13 08:13:15;;;;;;;5.82;4.85;;;18.10;99.90;;;;;;4957445;28;20026;-76
2022/04/13 08:15:40;;;;;;;9.68;4.90;;;18.40;99.90;;;;;;4958714;28;20042;-75
2022/04/13 08:18:06;;;;;;;8.10;4.38;;;18.20;99.90;;;;;;4957401;28;20024;-75
2022/04/13 08:20:31;;;;;;;11.48;4.93;;;18.20;99.90;;;;;;4957951;28;20054;-75
2022/04/13 08:22:57;;;;;;;5.57;4.57;;;18.60;99.90;;;;;;4956083;28;20023;-76
2022/04/13 08:25:23;;;;;;;7.75;4.30;;;18.30;99.90;;;;;;4947959;28;20403;-76
2022/04/13 08:27:48;;;;;;;7.18;4.78;;;18.40;99.90;;;;;;4954729;29;20070;-76
2022/04/13 08:30:14;;;;;;;7.85;4.72;;;18.90;99.90;;;;;;4937071;29;20485;-76
2022/04/13 08:32:41;;;;;;;7.65;4.75;;;19.00;99.90;;;;;;4953251;28;20030;-76
2022/04/13 08:35:09;;;;;;;8.73;4.93;;;19.10;99.00;;;;;;4948934;28;20525;-76
2022/04/13 08:37:35;;;;;;;8.05;4.25;;;19.00;99.30;;;;;;4945141;29;20031;-76
2022/04/13 08:40:01;;;;;;;5.20;4.00;;;19.30;98.90;;;;;;4928905;29;20027;-76
2022/04/13 08:42:29;;;;;;;5.25;3.72;;;19.50;97.40;;;;;;4955474;28;20503;-76
2022/04/13 08:44:58;;;;;;;8.60;4.45;;;19.50;97.40;;;;;;4956096;28;20450;-76
2022/04/13 08:47:24;;;;;;;10.57;4.47;;;19.50;97.20;;;;;;4958953;28;20027;-76
2022/04/13 08:49:51;;;;;;;5.68;4.15;;;19.60;97.10;;;;;;4937299;29;20034;-76
2022/04/13 08:52:24;;;;;;;11.55;4.65;;;19.60;97.30;;;;;;4934868;29;20035;-76
2022/04/13 08:55:09;;;;;;;10.05;3.80;;;19.60;96.80;;;;;;4936568;29;20031;-77
2022/04/13 08:57:47;;;;;;;3.97;3.20;;;19.80;95.90;;;;;;4954998;28;20023;-76
2022/04/13 09:00:14;;;;;;;4.10;3.70;;;20.00;94.50;;;;;;4956063;28;20504;-75
2022/04/13 09:02:55;;;;;;;9.90;3.30;;;19.60;95.10;;;;;;4938650;28;20024;-75
2022/04/13 09:05:28;;;;;;;9.82;3.65;;;19.50;95.20;;;;;;4953592;28;20015;-76
2022/04/13 09:08:22;;;;;;;7.88;3.20;;;20.00;94.70;;;;;;4951245;28;20092;-75
2022/04/13 09:10:50;;;;;;;7.22;3.53;;;20.30;94.20;;;;;;4953936;29;20054;-76
2022/04/13 09:13:17;;;;;;;5.85;2.85;;;20.30;93.90;;;;;;4959965;28;20024;-76
2022/04/13 09:15:44;;;;;;;4.82;3.38;;;20.30;93.60;;;;;;4932474;29;20027;-76
2022/04/13 09:18:10;;;;;;;6.10;3.40;;;20.80;92.60;;;;;;4950278;29;20058;-76
2022/04/13 09:20:36;;;;;;;8.82;3.42;;;20.90;92.30;;;;;;4947393;29;20019;-76
2022/04/13 09:23:02;;;;;;;7.45;3.63;;;20.70;91.80;;;;;;4947065;28;20020;-76
2022/04/13 09:25:31;;;;;;;8.32;3.45;;;20.90;91.80;;;;;;4948184;29;20098;-76
2022/04/13 09:27:58;;;;;;;7.85;2.50;;;21.20;91.20;;;;;;4959400;28;20027;-76
2022/04/13 09:30:23;;;;;;;2.83;2.13;;;21.10;90.50;;;;;;4945896;29;20035;-76
2022/04/13 09:32:50;;;;;;;7.22;2.60;;;20.70;90.60;;;;;;4955916;28;20027;-76
2022/04/13 09:35:17;;;;;;;5.97;2.92;;;20.80;90.20;;;;;;4952332;28;20031;-77
2022/04/13 09:37:43;;;;;;;4.72;2.90;;;21.30;90.00;;;;;;4953304;29;20078;-75
2022/04/13 09:40:09;;;;;;;6.85;2.45;;;21.70;88.70;;;;;;4953185;28;20035;-74
2022/04/13 09:42:36;;;;;;;8.63;2.47;;;21.80;88.30;;;;;;4953301;29;20043;-77
2022/04/13 09:45:03;;;;;;;4.50;1.95;;;21.90;85.90;;;;;;4953847;29;20023;-75
2022/04/13 09:47:33;;;;;;;5.43;1.80;;;21.60;81.70;;;;;;4936030;29;20027;-74
2022/04/13 09:49:59;;;;;;;3.42;1.67;;;21.40;80.50;;;;;;4957344;28;20122;-74
2022/04/13 09:52:39;;;;;;;6.60;1.75;;;21.10;79.40;;;;;;4935662;29;20046;-75
2022/04/13 09:55:05;;;;;;;6.43;2.13;;;21.10;79.50;;;;;;4951175;28;20050;-74
2022/04/13 09:57:32;;;;;;;3.22;1.52;;;20.90;80.10;;;;;;4953446;28;20027;-76
2022/04/13 10:00:00;;;;;;;4.93;1.48;;;21.00;80.00;;;;;;4953542;28;20082;-75
2022/04/13 10:02:40;;;;;;;5.70;1.90;;;21.60;81.30;;;;;;4953357;29;20027;-74
2022/04/13 10:05:20;;;;;;;4.25;1.88;;;22.00;77.30;;;;;;4936553;28;20050;-75
2022/04/13 10:08:01;;;;;;;4.80;2.22;;;22.10;77.00;;;;;;4953292;29;20027;-75
2022/04/13 10:10:28;;;;;;;3.47;2.58;;;22.20;78.60;;;;;;4948005;28;20373;-75
2022/04/13 10:12:53;;;;;;;4.15;2.03;;;22.30;80.50;;;;;;4936014;29;20111;-76
2022/04/13 10:15:19;;;;;;;5.88;2.15;;;22.20;81.40;;;;;;4951767;28;20106;-75
2022/04/13 10:17:44;;;;;;;10.50;2.80;;;22.20;80.60;;;;;;4956565;29;20106;-75
2022/04/13 10:20:10;;;;;;;3.70;2.38;;;22.40;80.80;;;;;;4956850;28;20043;-75
2022/04/13 10:23:11;;;;;;;6.85;2.63;;;22.50;79.80;;;;;;4944195;29;20027;-75
2022/04/13 10:25:38;;;;;;;7.88;3.25;;;22.60;81.70;;;;;;4891621;29;20080;-75
2022/04/13 10:28:04;;;;;;;6.65;2.58;;;22.20;81.90;;;;;;4945520;28;20064;-74
2022/04/13 10:30:33;;;;;;;6.40;2.70;;;22.20;82.80;;;;;;4956889;29;20489;-78
2022/04/13 10:33:03;;;;;;;6.75;2.58;;;22.10;82.70;;;;;;4951422;28;20035;-76
2022/04/13 10:35:37;;;;;;;3.90;2.13;;;22.40;81.30;;;;;;4957890;28;20191;-75
2022/04/13 10:38:03;;;;;;;4.05;2.65;;;22.20;82.40;;;;;;4954944;28;20134;-75
2022/04/13 10:40:35;;;;;;;4.80;2.83;;;21.90;83.30;;;;;;4941918;29;20028;-76
2022/04/13 10:43:04;;;;;;;7.18;2.67;;;21.90;84.20;;;;;;4951908;28;20019;-76
2022/04/13 10:45:30;;;;;;;5.65;2.58;;;22.10;83.00;;;;;;4933703;29;20501;-76
2022/04/13 10:48:04;;;;;;;6.32;3.03;;;22.10;83.90;;;;;;4955921;28;20027;-75
2022/04/13 10:50:57;;;;;;;6.35;2.80;;;22.60;83.20;;;;;;4950773;28;20019;-75
2022/04/13 10:53:30;;;;;;;6.25;2.13;;;23.10;81.40;;;;;;4960049;28;20034;-75
2022/04/13 10:56:01;;;;;;;8.80;2.30;;;22.70;80.20;;;;;;4960308;28;20113;-76
2022/04/13 10:58:26;;;;;;;;;;;22.10;80.10;;;;;;4955300;28;20087;-75
2022/04/13 11:01:01;;;;;;;5.75;2.28;;;22.30;79.90;;;;;;4962530;28;19952;-75
2022/04/13 11:03:30;;;;;;;5.65;2.38;;;22.60;78.60;;;;;;4955114;28;20032;-75
2022/04/13 11:05:57;;;;;;;7.15;2.10;;;22.60;77.70;;;;;;4928909;29;20035;-74
2022/04/13 11:08:29;;;;;;;4.95;2.08;;;22.50;78.30;;;;;;4954479;29;20034;-76
2022/04/13 11:10:56;;;;;;;4.53;1.92;;;22.40;78.80;;;;;;4935242;29;20576;-75
2022/04/13 11:13:22;;;;;;;4.40;1.80;;;22.20;76.70;;;;;;4952612;29;20030;-75
2022/04/13 11:15:50;;;;;;;4.50;2.20;;;22.40;77.60;;;;;;4962983;28;20122;-75
2022/04/13 11:18:20;;;;;;;6.93;2.15;;;22.50;77.60;;;;;;4954390;29;20023;-76
2022/04/13 11:21:09;;;;;;;4.88;2.03;;;23.00;74.90;;;;;;4932936;29;20102;-76
2022/04/13 11:23:50;;;;;;;7.28;1.88;;;22.50;75.60;;;;;;4954429;28;20027;-76
2022/04/13 11:26:33;;;;;;;4.82;1.95;;;22.40;75.00;;;;;;4955083;29;20066;-75
2022/04/13 11:29:23;;;;;;;5.75;1.90;;;22.40;74.90;;;;;;4952703;28;20038;-75
2022/04/13 11:32:01;;;;;;;4.97;1.65;;;22.40;75.10;;;;;;4961209;28;20111;-77
2022/04/13 11:34:35;;;;;;;5.78;2.25;;;22.50;74.30;;;;;;4957278;28;20504;-77
2022/04/13 11:37:03;;;;;;;4.78;1.67;;;22.50;74.60;;;;;;4940097;29;20115;-76
2022/04/13 11:39:59;;;;;;;4.13;1.58;;;22.50;73.90;;;;;;4955270;28;20086;-76
2022/04/13 11:42:32;;;;;;;6.22;1.98;;;22.80;73.50;;;;;;4953343;28;20441;-75
2022/04/13 11:45:07;;;;;;;3.53;1.40;;;23.10;73.40;;;;;;4955252;29;20020;-77
2022/04/13 11:47:51;;;;;;;4.25;1.58;;;23.60;72.50;;;;;;4956461;28;20034;-77
2022/04/13 11:50:19;;;;;;;7.18;1.85;;;23.90;71.40;;;;;;4955335;28;20577;-78
2022/04/13 11:52:50;;;;;;;3.88;1.90;;;24.00;70.30;;;;;;4953714;28;20401;-76
2022/04/13 11:55:22;;;;;;;6.93;2.22;;;23.90;70.40;;;;;;4957499;28;20061;-77
2022/04/13 11:58:08;;;;;;;6.47;2.30;;;23.60;70.30;;;;;;4955263;28;20027;-76
2022/04/13 12:01:07;;;;;;;5.15;1.88;;;23.90;69.30;;;;;;4962486;28;20023;-76
2022/04/13 12:03:39;;;;;;;4.90;1.70;;;24.10;69.80;;;;;;4956052;29;20043;-76
2022/04/13 12:06:14;;;;;;;6.43;1.88;;;24.20;69.40;;;;;;4950964;28;20135;-77
2022/04/13 12:08:52;;;;;;;2.58;1.10;;;24.20;68.80;;;;;;4938302;29;20081;-76
2022/04/13 12:11:20;;;;;;;4.68;1.80;;;24.30;68.70;;;;;;4954202;28;20031;-77
2022/04/13 12:13:51;;;;;;;3.00;1.33;;;24.30;68.10;;;;;;4962407;28;20030;-77
2022/04/13 12:16:19;;;;;;;4.35;1.17;;;24.40;68.40;;;;;;4952197;28;20023;-76
2022/04/13 12:18:45;;;;;;;5.72;1.75;;;24.30;68.50;;;;;;4938224;29;20390;-77
2022/04/13 12:21:12;;;;;;;7.55;1.33;;;24.30;67.90;;;;;;4950699;29;20482;-76
2022/04/13 12:23:39;;;;;;;3.60;1.33;;;24.30;67.90;;;;;;4953087;28;20027;-76
2022/04/13 12:26:06;;;;;;;5.22;1.33;;;24.30;67.00;;;;;;4939414;28;20031;-77
2022/04/13 12:28:32;;;;;;;7.47;1.60;;;24.40;67.50;;;;;;4950714;29;20490;-76
2022/04/13 12:31:04;;;;;;;5.15;1.48;;;24.40;67.40;;;;;;4953116;28;20042;-77
2022/04/13 12:33:31;;;;;;;5.93;2.30;;;24.50;67.20;;;;;;4957550;29;20042;-77
2022/04/13 12:35:59;;;;;;;4.95;1.10;;;24.50;66.90;;;;;;4958549;29;20027;-76
2022/04/13 12:38:28;;;;;;;5.43;2.63;;;24.60;66.60;;;;;;4948030;29;20028;-75
2022/04/13 12:41:09;;;;;;;1.67;1.15;;;24.60;66.40;;;;;;4935901;29;20089;-75
2022/04/13 12:43:36;;;;;;;5.90;1.40;;;24.50;66.60;;;;;;4931657;29;20060;-77
2022/04/13 12:46:10;;;;;;;3.05;1.60;;;24.10;66.10;;;;;;4937004;29;20038;-77
2022/04/13 12:48:36;;;;;;;7.30;1.85;;;24.20;67.20;;;;;;4949830;28;20030;-77